Terminal Aerodrome Forecast
Issued by NWS Omaha/Valley, NE

Home | Current Version | Previous Version | Graphics & Text | Print | Product List | Glossary On
Versions: 1 2 3 4 5 6 7 8 9 10 11 12 13 14 15 16 17 18 19 20
000
FTUS43 KOAX 142148 AAA
TAFOFK
TAF AMD
KOFK 142148Z 1422/1518 24010KT 3SM -SN OVC030
      TEMPO 1422/1423 1SM -SN BR OVC024
     FM150000 30010KT 5SM -SN OVC012
     FM150300 34018G25KT P6SM BKN022 OVC040
     FM150900 33022G28KT 5SM BLSN BKN030 OVC070=

USA.gov is the U.S. government's official web portal to all federal, state and local government web resources and services.